Time;durP1;ratioP1;P1;durP2;ratioP2;P2;SDS_P1;SDS_P2;PMS_P1;PMS_P2;Temp;Humidity;BMP_temperature;BMP_pressure;BME280_temperature;BME280_humidity;BME280_pressure;Samples;Min_cycle;Max_cycle;Signal;HPM_P1;HPM_P2
2021/01/20 00:01:14;;;;;;;32.38;15.77;;;;;;;;;;4981145;28;20029;-61
2021/01/20 00:03:41;;;;;;;39.03;15.02;;;;;;;;;;4976831;28;20034;-61
2021/01/20 00:06:07;;;;;;;38.15;16.35;;;;;;;;;;4989391;28;20060;-61
2021/01/20 00:08:38;;;;;;;35.25;14.95;;;;;;;;;;4984326;28;20509;-61
2021/01/20 00:11:06;;;;;;;31.17;14.40;;;;;;;;;;4962891;28;20034;-60
2021/01/20 00:13:32;;;;;;;43.42;16.15;;;;;;;;;;5001199;28;20276;-61
2021/01/20 00:15:58;;;;;;;38.78;15.10;;;;;;;;;;5000123;28;20396;-62
2021/01/20 00:18:24;;;;;;;36.63;14.57;;;;;;;;;;5000794;28;20029;-60
2021/01/20 00:20:49;;;;;;;31.05;15.00;;;;;;;;;;5000214;28;20594;-60
2021/01/20 00:23:17;;;;;;;42.53;16.75;;;;;;;;;;5000523;28;20556;-60
2021/01/20 00:25:42;;;;;;;40.38;16.08;;;;;;;;;;4998192;28;20103;-61
2021/01/20 00:28:08;;;;;;;30.58;14.20;;;;;;;;;;4998749;28;20050;-62
2021/01/20 00:30:35;;;;;;;35.75;15.57;;;;;;;;;;4999026;28;20034;-61
2021/01/20 00:33:01;;;;;;;39.78;15.55;;;;;;;;;;5000854;28;20324;-61
2021/01/20 00:35:26;;;;;;;31.65;14.30;;;;;;;;;;4999917;28;21041;-63
2021/01/20 00:37:55;;;;;;;36.42;14.98;;;;;;;;;;4997515;28;20025;-62
2021/01/20 00:40:22;;;;;;;39.55;15.55;;;;;;;;;;4979960;28;20041;-61
2021/01/20 00:42:50;;;;;;;42.65;15.32;;;;;;;;;;4981478;28;20445;-62
2021/01/20 00:45:18;;;;;;;41.65;15.90;;;;;;;;;;5000287;28;20033;-61
2021/01/20 00:47:44;;;;;;;42.63;15.77;;;;;;;;;;4999528;28;20770;-61
2021/01/20 00:50:10;;;;;;;37.60;15.00;;;;;;;;;;4998986;28;20607;-60
2021/01/20 00:52:38;;;;;;;41.95;15.93;;;;;;;;;;4988966;28;20029;-61
2021/01/20 00:55:03;;;;;;;46.40;17.05;;;;;;;;;;4999711;28;20033;-61
2021/01/20 00:57:29;;;;;;;46.50;15.95;;;;;;;;;;4999860;28;20080;-62
2021/01/20 01:00:00;;;;;;;34.00;14.80;;;;;;;;;;4998246;28;20073;-61
2021/01/20 01:02:30;;;;;;;33.33;14.98;;;;;;;;;;5000442;28;20034;-61
2021/01/20 01:04:58;;;;;;;35.13;14.95;;;;;;;;;;4981606;28;20034;-60
2021/01/20 01:07:25;;;;;;;34.03;15.30;;;;;;;;;;4983601;28;20060;-60
2021/01/20 01:09:51;;;;;;;43.65;15.10;;;;;;;;;;4995792;28;20044;-63
2021/01/20 01:12:19;;;;;;;31.35;14.90;;;;;;;;;;4998416;28;20393;-61
2021/01/20 01:14:45;;;;;;;30.98;14.10;;;;;;;;;;4974808;28;20029;-61
2021/01/20 01:17:10;;;;;;;36.25;14.93;;;;;;;;;;4985595;28;20029;-61
2021/01/20 01:19:38;;;;;;;26.00;13.82;;;;;;;;;;4998892;28;20041;-61
2021/01/20 01:22:09;;;;;;;37.13;14.20;;;;;;;;;;4971293;28;20037;-61
2021/01/20 01:24:34;;;;;;;33.58;14.63;;;;;;;;;;4998887;28;20037;-60
2021/01/20 01:27:00;;;;;;;35.20;13.48;;;;;;;;;;4999008;28;20034;-60
2021/01/20 01:29:25;;;;;;;48.22;15.02;;;;;;;;;;4984379;28;20061;-61
2021/01/20 01:31:53;;;;;;;32.85;14.70;;;;;;;;;;4980396;28;21469;-61
2021/01/20 01:34:22;;;;;;;32.20;14.25;;;;;;;;;;5000364;28;20025;-62
2021/01/20 01:36:47;;;;;;;36.20;14.77;;;;;;;;;;4968169;28;20141;-62
2021/01/20 01:39:14;;;;;;;34.83;14.77;;;;;;;;;;4976467;28;20417;-62
2021/01/20 01:41:42;;;;;;;37.80;14.90;;;;;;;;;;4973549;28;20025;-62
2021/01/20 01:44:08;;;;;;;43.13;15.05;;;;;;;;;;4960325;28;20118;-62
2021/01/20 01:46:38;;;;;;;33.95;14.13;;;;;;;;;;4983450;28;20022;-62
2021/01/20 01:49:07;;;;;;;32.28;14.35;;;;;;;;;;4982461;28;20060;-62
2021/01/20 01:51:35;;;;;;;41.72;14.32;;;;;;;;;;4983779;28;21635;-61
2021/01/20 01:54:01;;;;;;;31.23;13.30;;;;;;;;;;4982576;28;20132;-61
2021/01/20 01:56:26;;;;;;;33.38;13.38;;;;;;;;;;4975380;28;20030;-62
2021/01/20 01:58:55;;;;;;;29.05;14.75;;;;;;;;;;4962468;28;20040;-61
2021/01/20 02:01:23;;;;;;;34.88;15.00;;;;;;;;;;4975420;28;20111;-62
2021/01/20 02:03:51;;;;;;;31.33;13.70;;;;;;;;;;4962723;28;20461;-61
2021/01/20 02:06:17;;;;;;;31.40;13.52;;;;;;;;;;4960269;28;20517;-63
2021/01/20 02:08:43;;;;;;;28.33;13.10;;;;;;;;;;4982836;28;20033;-62
2021/01/20 02:11:14;;;;;;;28.40;12.30;;;;;;;;;;4976435;28;20041;-61
2021/01/20 02:13:51;;;;;;;29.83;13.95;;;;;;;;;;4962541;28;20116;-61
2021/01/20 02:16:22;;;;;;;33.47;14.07;;;;;;;;;;4977215;28;20372;-60
2021/01/20 02:18:55;;;;;;;28.75;12.85;;;;;;;;;;4960521;28;20188;-63
2021/01/20 02:21:25;;;;;;;;;;;;;;;;;;4979223;28;20928;-61
2021/01/20 02:23:51;;;;;;;34.40;12.60;;;;;;;;;;4962250;28;19920;-62
2021/01/20 02:26:39;;;;;;;31.13;14.02;;;;;;;;;;4962649;28;20108;-62
2021/01/20 02:29:08;;;;;;;34.45;14.13;;;;;;;;;;4976730;28;20038;-61
2021/01/20 02:31:36;;;;;;;37.53;15.25;;;;;;;;;;4981980;28;20026;-61
2021/01/20 02:34:07;;;;;;;38.70;15.00;;;;;;;;;;4981072;28;20038;-60
2021/01/20 02:36:36;;;;;;;33.30;14.30;;;;;;;;;;4972637;28;20038;-61
2021/01/20 02:39:02;;;;;;;36.53;14.70;;;;;;;;;;4994002;28;20029;-63
2021/01/20 02:41:28;;;;;;;35.80;14.38;;;;;;;;;;4996680;28;20095;-62
2021/01/20 02:43:58;;;;;;;38.85;14.73;;;;;;;;;;4997415;28;21081;-62
2021/01/20 02:46:26;;;;;;;35.65;14.02;;;;;;;;;;4997603;28;20665;-62
2021/01/20 02:48:52;;;;;;;34.25;13.93;;;;;;;;;;4994878;28;20032;-61
2021/01/20 02:51:24;;;;;;;38.78;16.27;;;;;;;;;;4995365;28;20179;-61
2021/01/20 02:53:52;;;;;;;;;;;;;;;;;;4992856;28;20033;-63
2021/01/20 02:56:23;;;;;;;39.78;15.48;;;;;;;;;;4996126;28;19917;-61
2021/01/20 02:58:56;;;;;;;47.10;15.70;;;;;;;;;;4996129;28;20130;-60
2021/01/20 03:01:24;;;;;;;;;;;;;;;;;;4997123;28;20052;-61
2021/01/20 03:03:52;;;;;;;47.70;14.88;;;;;;;;;;4996304;28;20146;-61
2021/01/20 03:06:19;;;;;;;43.90;15.38;;;;;;;;;;4995846;28;20071;-61
2021/01/20 03:08:45;;;;;;;41.90;16.00;;;;;;;;;;4983473;28;20111;-62
2021/01/20 03:11:13;;;;;;;41.42;16.63;;;;;;;;;;4997100;28;20029;-61
2021/01/20 03:13:42;;;;;;;35.15;14.52;;;;;;;;;;4997707;28;20081;-62
2021/01/20 03:16:10;;;;;;;46.85;15.93;;;;;;;;;;4997238;28;20405;-61
2021/01/20 03:18:40;;;;;;;38.90;16.65;;;;;;;;;;4997416;28;20021;-61
2021/01/20 03:21:06;;;;;;;52.58;17.10;;;;;;;;;;4995629;28;20607;-61
2021/01/20 03:23:34;;;;;;;34.80;15.10;;;;;;;;;;4994648;28;20040;-61
2021/01/20 03:26:06;;;;;;;48.33;16.77;;;;;;;;;;4996831;28;20101;-61
2021/01/20 03:28:32;;;;;;;38.78;16.23;;;;;;;;;;4996622;28;20129;-63
2021/01/20 03:31:08;;;;;;;45.03;16.02;;;;;;;;;;4994436;28;20049;-64
2021/01/20 03:33:33;;;;;;;34.53;14.40;;;;;;;;;;4986087;28;20373;-61
2021/01/20 03:35:58;;;;;;;34.25;14.20;;;;;;;;;;4983071;28;20046;-62
2021/01/20 03:38:24;;;;;;;43.38;15.48;;;;;;;;;;4995123;28;20029;-61
2021/01/20 03:40:50;;;;;;;32.63;14.43;;;;;;;;;;4975747;28;20053;-61
2021/01/20 03:43:18;;;;;;;38.17;14.90;;;;;;;;;;4994516;28;20405;-62
2021/01/20 03:45:46;;;;;;;39.78;15.82;;;;;;;;;;4997672;28;20594;-62
2021/01/20 03:48:11;;;;;;;35.05;14.10;;;;;;;;;;4995100;28;20051;-61
2021/01/20 03:50:36;;;;;;;42.38;15.73;;;;;;;;;;4962383;28;20538;-63
2021/01/20 03:53:04;;;;;;;36.70;14.30;;;;;;;;;;4996828;28;21051;-63
2021/01/20 03:55:32;;;;;;;45.47;16.02;;;;;;;;;;4982893;28;20030;-62
2021/01/20 03:57:57;;;;;;;35.30;14.40;;;;;;;;;;4996427;28;20390;-62
2021/01/20 04:00:26;;;;;;;42.67;15.50;;;;;;;;;;4983658;28;20065;-61
2021/01/20 04:02:54;;;;;;;35.10;15.40;;;;;;;;;;4994287;28;21095;-61
2021/01/20 04:05:19;;;;;;;38.30;15.52;;;;;;;;;;4981162;28;20109;-61
2021/01/20 04:07:49;;;;;;;37.67;15.25;;;;;;;;;;4997267;28;20568;-61
2021/01/20 04:10:19;;;;;;;34.58;14.00;;;;;;;;;;4995751;28;20811;-65
2021/01/20 04:12:48;;;;;;;43.03;15.63;;;;;;;;;;4979819;28;20044;-62
2021/01/20 04:15:13;;;;;;;41.30;15.40;;;;;;;;;;4994598;28;20594;-62
2021/01/20 04:17:39;;;;;;;35.03;14.07;;;;;;;;;;4980386;28;20357;-61
2021/01/20 04:20:07;;;;;;;39.10;15.30;;;;;;;;;;4981729;28;20145;-61
2021/01/20 04:22:35;;;;;;;48.92;16.70;;;;;;;;;;4995308;28;20057;-62
2021/01/20 04:25:01;;;;;;;41.35;14.80;;;;;;;;;;4997549;28;20320;-65
2021/01/20 04:27:27;;;;;;;40.55;15.18;;;;;;;;;;4995376;28;20546;-62
2021/01/20 04:29:56;;;;;;;40.40;13.85;;;;;;;;;;5000810;28;20124;-64
2021/01/20 04:32:24;;;;;;;41.10;16.27;;;;;;;;;;4962129;28;20059;-62
2021/01/20 04:34:49;;;;;;;39.25;15.88;;;;;;;;;;4995741;28;20025;-62
2021/01/20 04:37:17;;;;;;;43.65;15.52;;;;;;;;;;4962929;28;20089;-61
2021/01/20 04:39:45;;;;;;;35.92;15.65;;;;;;;;;;4962810;28;20037;-62
2021/01/20 04:42:11;;;;;;;38.17;15.55;;;;;;;;;;4971408;28;20045;-63
2021/01/20 04:44:39;;;;;;;35.63;16.02;;;;;;;;;;4962744;28;20106;-62
2021/01/20 04:47:06;;;;;;;42.47;13.93;;;;;;;;;;4973946;28;20565;-64
2021/01/20 04:49:35;;;;;;;35.70;15.27;;;;;;;;;;4977216;28;20034;-63
2021/01/20 04:52:04;;;;;;;34.90;15.25;;;;;;;;;;4976302;28;20030;-62
2021/01/20 04:54:30;;;;;;;38.40;15.85;;;;;;;;;;4977077;28;20034;-62
2021/01/20 04:57:00;;;;;;;37.92;14.80;;;;;;;;;;4975935;28;20038;-61
2021/01/20 04:59:30;;;;;;;42.63;15.93;;;;;;;;;;4966487;28;20038;-61
2021/01/20 05:01:59;;;;;;;38.47;13.60;;;;;;;;;;4979841;28;20236;-63
2021/01/20 05:04:27;;;;;;;39.55;14.90;;;;;;;;;;4976571;28;20535;-61
2021/01/20 05:06:55;;;;;;;37.47;16.58;;;;;;;;;;4976522;28;20630;-63
2021/01/20 05:09:25;;;;;;;42.47;14.88;;;;;;;;;;4966570;28;20069;-63
2021/01/20 05:11:53;;;;;;;46.90;16.45;;;;;;;;;;4979720;28;20178;-62
2021/01/20 05:14:23;;;;;;;40.60;15.65;;;;;;;;;;4964901;28;20191;-63
2021/01/20 05:16:50;;;;;;;45.72;15.57;;;;;;;;;;4969839;28;20100;-62
2021/01/20 05:19:19;;;;;;;35.67;14.35;;;;;;;;;;4963382;28;20033;-66
2021/01/20 05:22:04;;;;;;;33.88;15.02;;;;;;;;;;4960155;28;20375;-62
2021/01/20 05:24:29;;;;;;;;;;;;;;;;;;4981097;28;20035;-63
2021/01/20 05:26:55;;;;;;;34.22;13.43;;;;;;;;;;4974761;28;19960;-63
2021/01/20 05:29:20;;;;;;;35.17;14.48;;;;;;;;;;4971414;28;20035;-62
2021/01/20 05:31:51;;;;;;;50.72;16.02;;;;;;;;;;4966838;28;20038;-64
2021/01/20 05:34:37;;;;;;;36.03;14.35;;;;;;;;;;4963601;28;20042;-63
2021/01/20 05:37:06;;;;;;;42.35;16.08;;;;;;;;;;4979095;28;20054;-62
2021/01/20 05:39:37;;;;;;;33.53;14.05;;;;;;;;;;4999106;28;20100;-63
2021/01/20 05:42:04;;;;;;;36.50;15.60;;;;;;;;;;4995949;28;20449;-62
2021/01/20 05:44:33;;;;;;;31.98;14.57;;;;;;;;;;4997738;28;20569;-62
2021/01/20 05:47:08;;;;;;;47.05;15.55;;;;;;;;;;4995444;28;20509;-62
2021/01/20 05:49:36;;;;;;;35.60;15.10;;;;;;;;;;4981023;28;20021;-64
2021/01/20 05:52:05;;;;;;;37.00;14.38;;;;;;;;;;4999649;28;20211;-64
2021/01/20 05:54:34;;;;;;;37.92;15.25;;;;;;;;;;4997817;28;20042;-63
2021/01/20 05:57:09;;;;;;;38.78;15.70;;;;;;;;;;4981475;28;20024;-63
2021/01/20 05:59:37;;;;;;;40.10;15.48;;;;;;;;;;4998386;28;20033;-63
2021/01/20 06:02:06;;;;;;;32.40;14.95;;;;;;;;;;4986113;28;20107;-64
2021/01/20 06:04:32;;;;;;;36.30;13.82;;;;;;;;;;4999465;28;20037;-62
2021/01/20 06:06:58;;;;;;;30.33;13.35;;;;;;;;;;4999031;28;20850;-62
2021/01/20 06:09:26;;;;;;;34.45;14.68;;;;;;;;;;4973837;28;20041;-64
2021/01/20 06:11:52;;;;;;;34.20;14.73;;;;;;;;;;4997252;28;20040;-63
2021/01/20 06:14:18;;;;;;;34.08;13.98;;;;;;;;;;4990701;28;20050;-62
2021/01/20 06:16:47;;;;;;;41.63;15.48;;;;;;;;;;4996826;28;20045;-62
2021/01/20 06:19:15;;;;;;;25.25;12.68;;;;;;;;;;4986183;23;20009;-82
2021/01/20 06:21:42;;;;;;;33.95;14.23;;;;;;;;;;4985025;28;20038;-83
2021/01/20 06:24:14;;;;;;;27.23;12.73;;;;;;;;;;4989363;28;20754;-82
2021/01/20 06:26:47;;;;;;;34.90;13.52;;;;;;;;;;4989791;28;20580;-83
2021/01/20 06:29:13;;;;;;;23.42;13.35;;;;;;;;;;4970773;28;20046;-82
2021/01/20 06:31:43;;;;;;;33.28;14.00;;;;;;;;;;4988068;28;20049;-84
2021/01/20 06:34:09;;;;;;;29.77;12.05;;;;;;;;;;4988515;28;20421;-83
2021/01/20 06:36:35;;;;;;;30.27;11.98;;;;;;;;;;4969025;28;20033;-84
2021/01/20 06:39:22;;;;;;;26.85;12.50;;;;;;;;;;4988498;28;20109;-84
2021/01/20 06:41:47;;;;;;;27.08;11.98;;;;;;;;;;4988593;28;20022;-83
2021/01/20 06:44:18;;;;;;;28.13;12.02;;;;;;;;;;4983151;28;20038;-83
2021/01/20 06:46:55;;;;;;;31.60;13.23;;;;;;;;;;4988516;28;20026;-84
2021/01/20 06:49:21;;;;;;;32.67;13.02;;;;;;;;;;4987949;28;20038;-84
2021/01/20 06:52:04;;;;;;;31.88;12.40;;;;;;;;;;4971077;28;20307;-81
2021/01/20 06:54:40;;;;;;;27.30;11.80;;;;;;;;;;4984401;28;20208;-83
2021/01/20 06:57:26;;;;;;;37.90;12.52;;;;;;;;;;4987675;28;20022;-83
2021/01/20 07:00:19;;;;;;;29.08;12.23;;;;;;;;;;4984754;28;20026;-82
2021/01/20 07:03:00;;;;;;;29.85;12.98;;;;;;;;;;4986635;28;20450;-83
2021/01/20 07:05:32;;;;;;;25.85;12.38;;;;;;;;;;4987873;28;20053;-82
2021/01/20 07:07:58;;;;;;;36.17;12.10;;;;;;;;;;4988011;28;20026;-84
2021/01/20 07:10:27;;;;;;;32.67;12.60;;;;;;;;;;4986113;28;20037;-84
2021/01/20 07:13:13;;;;;;;23.38;11.57;;;;;;;;;;4989107;28;20026;-83
2021/01/20 07:15:43;;;;;;;28.15;13.05;;;;;;;;;;4967532;28;20552;-81
2021/01/20 07:18:08;;;;;;;28.58;12.07;;;;;;;;;;4986244;28;20058;-83
2021/01/20 07:20:34;;;;;;;24.48;11.93;;;;;;;;;;4988336;28;20467;-81
2021/01/20 07:23:00;;;;;;;26.58;11.70;;;;;;;;;;4988245;28;20038;-85
2021/01/20 07:25:34;;;;;;;26.65;12.30;;;;;;;;;;4980597;28;20030;-82
2021/01/20 07:28:00;;;;;;;31.52;11.80;;;;;;;;;;4986255;28;20101;-82
2021/01/20 07:30:26;;;;;;;24.42;11.95;;;;;;;;;;4968879;28;20778;-82
2021/01/20 07:32:52;;;;;;;31.88;11.48;;;;;;;;;;4983952;28;20034;-82
2021/01/20 07:35:18;;;;;;;23.13;11.40;;;;;;;;;;4968559;28;20423;-84
2021/01/20 07:37:47;;;;;;;21.10;11.40;;;;;;;;;;4982581;28;20034;-81
2021/01/20 07:40:12;;;;;;;27.73;12.00;;;;;;;;;;4985926;28;20037;-83
2021/01/20 07:42:39;;;;;;;28.35;10.30;;;;;;;;;;4964547;28;20045;-82
2021/01/20 07:45:05;;;;;;;25.52;10.25;;;;;;;;;;4982287;28;20064;-82
2021/01/20 07:47:43;;;;;;;33.28;11.65;;;;;;;;;;4986689;28;20116;-83
2021/01/20 07:50:09;;;;;;;25.85;11.23;;;;;;;;;;4986277;28;20544;-81
2021/01/20 07:52:37;;;;;;;24.75;10.40;;;;;;;;;;4984669;28;20073;-81
2021/01/20 07:55:02;;;;;;;23.05;11.45;;;;;;;;;;4983910;28;20052;-85
2021/01/20 07:57:28;;;;;;;22.42;10.73;;;;;;;;;;4968797;28;20025;-80
2021/01/20 08:00:02;;;;;;;25.85;11.48;;;;;;;;;;4971389;28;20093;-84
2021/01/20 08:02:30;;;;;;;22.48;10.95;;;;;;;;;;4981681;28;20546;-82
2021/01/20 08:04:59;;;;;;;24.20;10.60;;;;;;;;;;4971711;28;20056;-81
2021/01/20 08:07:25;;;;;;;23.42;11.75;;;;;;;;;;4985271;28;20041;-82
2021/01/20 08:09:53;;;;;;;17.52;9.63;;;;;;;;;;4982356;28;20030;-84
2021/01/20 08:12:24;;;;;;;23.95;11.18;;;;;;;;;;4964914;28;20290;-83
2021/01/20 08:14:49;;;;;;;23.92;11.40;;;;;;;;;;4984179;28;20037;-82
2021/01/20 08:17:16;;;;;;;25.95;10.10;;;;;;;;;;4985380;28;20045;-83
2021/01/20 08:19:42;;;;;;;20.45;9.50;;;;;;;;;;4983468;28;20050;-82
2021/01/20 08:22:13;;;;;;;25.35;10.68;;;;;;;;;;4984764;28;20479;-82
2021/01/20 08:24:45;;;;;;;17.75;9.15;;;;;;;;;;4983285;28;20030;-80
2021/01/20 08:27:13;;;;;;;22.30;9.90;;;;;;;;;;4985712;28;20720;-82
2021/01/20 08:29:49;;;;;;;23.42;9.48;;;;;;;;;;4987976;28;20081;-82
2021/01/20 08:32:17;;;;;;;17.70;8.75;;;;;;;;;;4983673;28;20129;-85
2021/01/20 08:34:46;;;;;;;18.65;9.27;;;;;;;;;;4987966;28;20509;-83
2021/01/20 08:37:13;;;;;;;20.73;8.40;;;;;;;;;;4990060;28;20046;-81
2021/01/20 08:39:52;;;;;;;20.52;8.60;;;;;;;;;;4990872;28;20034;-83
2021/01/20 08:42:28;;;;;;;20.42;8.77;;;;;;;;;;4988828;28;20038;-80
2021/01/20 08:45:03;;;;;;;22.02;9.48;;;;;;;;;;4989515;28;20396;-83
2021/01/20 08:47:28;;;;;;;15.63;8.25;;;;;;;;;;4990019;28;20050;-82
2021/01/20 08:49:56;;;;;;;18.90;8.75;;;;;;;;;;4988987;28;20030;-83
2021/01/20 08:52:22;;;;;;;17.77;8.00;;;;;;;;;;4986515;28;20030;-82
2021/01/20 08:54:48;;;;;;;22.30;8.30;;;;;;;;;;4967930;28;20029;-85
2021/01/20 08:57:19;;;;;;;14.27;8.55;;;;;;;;;;4989361;28;20609;-83
2021/01/20 08:59:51;;;;;;;13.73;7.25;;;;;;;;;;4988573;28;20034;-82
2021/01/20 09:02:19;;;;;;;12.00;6.88;;;;;;;;;;4965351;28;20038;-82
2021/01/20 09:04:48;;;;;;;14.10;7.57;;;;;;;;;;4970364;28;20123;-84
2021/01/20 09:07:15;;;;;;;11.35;6.70;;;;;;;;;;4989697;28;20040;-83
2021/01/20 09:09:41;;;;;;;13.30;7.03;;;;;;;;;;4988484;28;20066;-84
2021/01/20 09:12:06;;;;;;;16.35;7.68;;;;;;;;;;4974805;28;20065;-83
2021/01/20 09:14:41;;;;;;;;;;;;;;;;;;4989596;28;20042;-82
2021/01/20 09:17:07;;;;;;;14.25;6.70;;;;;;;;;;4971228;28;19997;-83
2021/01/20 09:19:32;;;;;;;11.80;6.95;;;;;;;;;;4974251;28;20253;-82
2021/01/20 09:21:58;;;;;;;10.88;6.90;;;;;;;;;;4973678;28;20034;-83
2021/01/20 09:24:23;;;;;;;13.30;6.97;;;;;;;;;;4990419;28;20336;-81
2021/01/20 09:26:50;;;;;;;12.77;6.30;;;;;;;;;;4991609;28;20038;-80
2021/01/20 09:29:15;;;;;;;11.88;6.18;;;;;;;;;;4990272;28;20096;-82
2021/01/20 09:31:41;;;;;;;20.75;6.97;;;;;;;;;;4956488;28;20046;-83
2021/01/20 09:34:07;;;;;;;15.98;6.38;;;;;;;;;;4971490;28;20028;-83
2021/01/20 09:36:36;;;;;;;11.73;6.60;;;;;;;;;;4988111;28;20132;-84
2021/01/20 09:39:03;;;;;;;11.05;6.30;;;;;;;;;;4989404;28;20491;-83
2021/01/20 09:41:28;;;;;;;12.98;5.78;;;;;;;;;;4985387;28;20041;-81
2021/01/20 09:43:56;;;;;;;11.20;6.25;;;;;;;;;;4969295;28;20038;-80
2021/01/20 09:46:26;;;;;;;9.32;6.03;;;;;;;;;;4987139;28;20035;-83
2021/01/20 09:48:51;;;;;;;11.15;6.22;;;;;;;;;;4970064;28;20113;-83
2021/01/20 09:51:17;;;;;;;12.32;6.28;;;;;;;;;;4972846;28;20044;-84
2021/01/20 09:54:20;;;;;;;;;;;;;;;;;;;;;
2021/01/20 10:00:40;;;;;;;10.32;6.13;;;;;;;;;;4989134;28;20460;-83
2021/01/20 10:03:59;;;;;;;9.68;5.82;;;;;;;;;;4975540;28;20080;-82
2021/01/20 10:07:02;;;;;;;8.13;5.53;;;;;;;;;;4983250;28;20060;-81
2021/01/20 10:09:59;;;;;;;16.63;6.00;;;;;;;;;;4987485;28;20034;-83
2021/01/20 10:16:21;;;;;;;12.07;6.47;;;;;;;;;;4890711;29;20040;-82
2021/01/20 10:19:17;;;;;;;10.65;5.57;;;;;;;;;;4908047;29;20640;-83
2021/01/20 10:22:14;;;;;;;7.82;4.68;;;;;;;;;;4852751;29;20562;-82
2021/01/20 10:28:36;;;;;;;9.00;5.30;;;;;;;;;;4871457;29;20028;-79
2021/01/20 10:31:32;;;;;;;9.98;5.60;;;;;;;;;;4869728;29;20092;-83
2021/01/20 10:38:41;;;;;;;9.40;5.32;;;;;;;;;;4781110;29;20732;-83
2021/01/20 10:44:27;;;;;;;7.35;5.03;;;;;;;;;;4746863;30;20048;-82
2021/01/20 11:01:13;;;;;;;7.57;3.95;;;;;;;;;;4795979;29;20052;-83
2021/01/20 11:11:12;;;;;;;9.63;3.90;;;;;;;;;;4829774;29;20046;-84
2021/01/20 11:14:09;;;;;;;5.93;3.22;;;;;;;;;;4886546;29;20039;-85
2021/01/20 11:31:15;;;;;;;6.78;2.88;;;;;;;;;;4870499;29;20395;-83
2021/01/20 11:33:41;;;;;;;5.35;2.90;;;;;;;;;;4837440;29;20055;-83
2021/01/20 11:36:06;;;;;;;4.15;2.80;;;;;;;;;;4850894;29;20060;-82
2021/01/20 11:38:32;;;;;;;6.53;3.20;;;;;;;;;;4897677;28;20052;-84
2021/01/20 11:40:58;;;;;;;3.20;2.53;;;;;;;;;;4962307;28;20603;-84
2021/01/20 11:43:24;;;;;;;5.40;2.70;;;;;;;;;;4962030;28;20027;-83
2021/01/20 11:45:49;;;;;;;7.35;3.20;;;;;;;;;;4945942;28;20058;-83
2021/01/20 11:48:15;;;;;;;4.35;2.63;;;;;;;;;;4945678;28;20119;-84
2021/01/20 11:50:48;;;;;;;7.07;2.75;;;;;;;;;;4951141;28;20110;-84
2021/01/20 11:53:14;;;;;;;8.35;3.10;;;;;;;;;;4965830;28;20022;-83
2021/01/20 11:55:40;;;;;;;6.80;2.63;;;;;;;;;;4950124;28;20045;-83
2021/01/20 11:58:05;;;;;;;4.38;2.72;;;;;;;;;;4950967;28;20026;-83
2021/01/20 12:00:40;;;;;;;6.95;2.75;;;;;;;;;;4944906;28;20037;-83
2021/01/20 12:03:08;;;;;;;4.50;2.90;;;;;;;;;;4946569;28;20070;-83
2021/01/20 12:05:33;;;;;;;5.45;2.22;;;;;;;;;;4964542;28;20046;-83
2021/01/20 12:07:59;;;;;;;7.22;2.65;;;;;;;;;;4967911;28;20035;-83
2021/01/20 12:10:25;;;;;;;4.13;2.70;;;;;;;;;;4968410;28;20042;-82
2021/01/20 12:12:54;;;;;;;5.15;2.80;;;;;;;;;;4966479;28;20074;-84
2021/01/20 12:15:19;;;;;;;5.93;2.95;;;;;;;;;;4966934;28;20046;-84
2021/01/20 12:17:46;;;;;;;4.57;2.70;;;;;;;;;;4969207;28;20101;-84
2021/01/20 12:20:11;;;;;;;3.97;2.45;;;;;;;;;;4965352;28;20046;-83
2021/01/20 12:22:48;;;;;;;3.65;2.45;;;;;;;;;;4971621;28;20589;-85
2021/01/20 12:25:22;;;;;;;5.57;2.35;;;;;;;;;;4972695;28;20345;-83
2021/01/20 12:27:48;;;;;;;4.40;2.13;;;;;;;;;;4970616;28;20049;-81
2021/01/20 12:30:14;;;;;;;4.38;2.35;;;;;;;;;;4976522;28;20037;-83
2021/01/20 12:32:39;;;;;;;5.05;2.33;;;;;;;;;;4972915;28;20042;-83
2021/01/20 12:35:05;;;;;;;3.95;2.15;;;;;;;;;;4989778;28;20447;-82
2021/01/20 12:37:31;;;;;;;3.00;2.10;;;;;;;;;;4992181;28;20459;-83
2021/01/20 12:40:16;;;;;;;3.50;2.25;;;;;;;;;;4959636;28;20064;-84
2021/01/20 12:42:42;;;;;;;3.25;2.10;;;;;;;;;;4986939;28;20042;-83
2021/01/20 12:45:10;;;;;;;3.28;2.20;;;;;;;;;;4969070;28;20041;-83
2021/01/20 12:47:38;;;;;;;3.00;2.15;;;;;;;;;;4988082;28;20037;-82
2021/01/20 12:50:05;;;;;;;2.17;1.67;;;;;;;;;;4989330;28;20470;-83
2021/01/20 12:52:30;;;;;;;7.50;2.08;;;;;;;;;;4989060;28;20026;-84
2021/01/20 12:54:58;;;;;;;2.67;1.95;;;;;;;;;;4975581;28;20025;-83
2021/01/20 12:57:24;;;;;;;2.88;1.67;;;;;;;;;;4974317;28;20026;-83
2021/01/20 12:59:58;;;;;;;3.13;1.75;;;;;;;;;;4992247;28;20334;-84
2021/01/20 13:02:42;;;;;;;4.47;1.83;;;;;;;;;;4986649;28;20490;-82
2021/01/20 13:05:31;;;;;;;1.98;1.40;;;;;;;;;;4989336;28;20102;-82
2021/01/20 13:07:57;;;;;;;4.03;1.60;;;;;;;;;;4973335;28;20109;-82
2021/01/20 13:10:34;;;;;;;3.60;1.52;;;;;;;;;;4973308;28;20116;-82
2021/01/20 13:13:13;;;;;;;2.90;1.92;;;;;;;;;;4988426;28;20045;-82
2021/01/20 13:15:48;;;;;;;5.20;1.70;;;;;;;;;;4989286;28;20037;-85
2021/01/20 13:18:15;;;;;;;7.45;2.10;;;;;;;;;;4989271;28;20085;-86
2021/01/20 13:20:43;;;;;;;2.70;1.50;;;;;;;;;;4975870;28;20332;-85
2021/01/20 13:23:09;;;;;;;2.72;1.60;;;;;;;;;;4994204;28;20060;-87
2021/01/20 13:25:44;;;;;;;2.47;1.67;;;;;;;;;;4993249;28;20022;-86
2021/01/20 13:28:10;;;;;;;2.97;1.77;;;;;;;;;;4988712;28;20026;-85
2021/01/20 13:30:39;;;;;;;3.95;1.50;;;;;;;;;;4976589;28;20087;-87
2021/01/20 13:33:07;;;;;;;2.88;1.65;;;;;;;;;;4989660;28;20050;-83
2021/01/20 13:35:36;;;;;;;4.18;1.60;;;;;;;;;;4974972;28;20050;-82
2021/01/20 13:38:02;;;;;;;4.28;1.70;;;;;;;;;;4971678;28;20038;-83
2021/01/20 13:40:28;;;;;;;3.13;1.65;;;;;;;;;;4971487;28;20056;-81
2021/01/20 13:42:57;;;;;;;5.13;1.52;;;;;;;;;;4994363;28;20042;-82
2021/01/20 13:45:39;;;;;;;7.55;1.42;;;;;;;;;;4952194;28;20067;-82
2021/01/20 13:48:05;;;;;;;3.33;1.58;;;;;;;;;;4967368;28;20140;-83
2021/01/20 13:50:31;;;;;;;2.08;1.58;;;;;;;;;;4964456;28;20055;-81
2021/01/20 13:52:57;;;;;;;2.88;1.45;;;;;;;;;;4950333;28;20057;-81
2021/01/20 13:55:25;;;;;;;2.78;1.50;;;;;;;;;;4966602;28;20038;-83
2021/01/20 13:57:51;;;;;;;2.22;1.50;;;;;;;;;;4965888;28;20018;-82
2021/01/20 14:00:17;;;;;;;4.95;1.20;;;;;;;;;;4950412;28;20061;-82
2021/01/20 14:02:42;;;;;;;1.55;1.30;;;;;;;;;;4949204;28;20026;-82
2021/01/20 14:05:11;;;;;;;6.80;1.40;;;;;;;;;;4969391;28;20046;-82
2021/01/20 14:07:37;;;;;;;3.95;1.80;;;;;;;;;;4948164;28;20045;-82
2021/01/20 14:10:06;;;;;;;2.70;1.50;;;;;;;;;;4967343;28;20047;-83
2021/01/20 14:12:31;;;;;;;4.97;1.60;;;;;;;;;;4950140;28;20054;-83
2021/01/20 14:14:57;;;;;;;3.28;1.63;;;;;;;;;;4970761;28;20026;-83
2021/01/20 14:17:22;;;;;;;3.60;1.73;;;;;;;;;;4986986;28;20260;-83
2021/01/20 14:19:48;;;;;;;6.05;1.55;;;;;;;;;;4986580;28;20033;-83
2021/01/20 14:22:18;;;;;;;5.45;1.50;;;;;;;;;;4971524;28;21895;-83
2021/01/20 14:24:44;;;;;;;2.05;1.20;;;;;;;;;;4989662;28;20061;-83
2021/01/20 14:27:11;;;;;;;2.47;1.23;;;;;;;;;;4983878;28;20060;-83
2021/01/20 14:29:39;;;;;;;4.57;2.10;;;;;;;;;;4987338;28;20030;-83
2021/01/20 14:32:05;;;;;;;3.63;1.67;;;;;;;;;;4969709;28;20060;-82
2021/01/20 14:34:30;;;;;;;3.85;2.10;;;;;;;;;;4970459;28;20527;-84
2021/01/20 14:36:58;;;;;;;3.80;1.80;;;;;;;;;;4988075;28;20087;-82
2021/01/20 14:39:29;;;;;;;6.60;1.50;;;;;;;;;;4987550;28;20185;-82
2021/01/20 14:41:54;;;;;;;4.38;1.70;;;;;;;;;;4966983;28;20034;-85
2021/01/20 14:44:22;;;;;;;3.38;1.60;;;;;;;;;;4987883;28;20621;-83
2021/01/20 14:46:48;;;;;;;4.72;1.60;;;;;;;;;;4972458;28;20038;-84
2021/01/20 14:49:13;;;;;;;3.85;1.67;;;;;;;;;;4987665;28;20023;-83
2021/01/20 14:51:39;;;;;;;1.85;1.58;;;;;;;;;;4986544;28;20161;-84
2021/01/20 14:54:06;;;;;;;2.85;1.20;;;;;;;;;;4968572;28;20022;-82
2021/01/20 14:56:34;;;;;;;4.30;1.92;;;;;;;;;;4969673;28;20031;-84
2021/01/20 14:59:00;;;;;;;2.80;1.58;;;;;;;;;;4968628;28;20026;-83
2021/01/20 15:01:26;;;;;;;2.60;1.25;;;;;;;;;;4965564;28;20026;-84
2021/01/20 15:04:09;;;;;;;3.75;1.58;;;;;;;;;;4969774;28;20093;-82
2021/01/20 15:06:37;;;;;;;4.00;1.25;;;;;;;;;;4990692;28;20034;-84
2021/01/20 15:09:06;;;;;;;3.30;1.73;;;;;;;;;;4972665;28;20100;-82
2021/01/20 15:11:37;;;;;;;3.10;1.90;;;;;;;;;;4970489;28;20030;-85
2021/01/20 15:14:02;;;;;;;3.15;1.13;;;;;;;;;;4981953;28;20096;-85
2021/01/20 15:16:28;;;;;;;2.63;1.33;;;;;;;;;;4972237;28;20035;-88
2021/01/20 15:18:53;;;;;;;3.13;1.95;;;;;;;;;;4988376;28;20042;-87
2021/01/20 15:21:19;;;;;;;3.40;1.67;;;;;;;;;;4992636;28;20054;-86
2021/01/20 15:23:45;;;;;;;2.80;1.90;;;;;;;;;;4967363;28;20066;-85
2021/01/20 15:29:31;;;;;;;3.30;2.08;;;;;;;;;;4954644;28;20105;-84
2021/01/20 15:31:57;;;;;;;3.05;1.70;;;;;;;;;;4962351;28;20530;-84
2021/01/20 15:34:23;;;;;;;3.88;1.67;;;;;;;;;;4980290;28;20595;-83
2021/01/20 15:37:01;;;;;;;5.05;1.95;;;;;;;;;;4981948;28;20480;-82
2021/01/20 15:39:32;;;;;;;6.65;1.60;;;;;;;;;;4979801;28;20085;-83